sensor_id;sensor_type;location;lat;lon;timestamp;P1;durP1;ratioP1;P2;durP2;ratioP2
19084;SDS011;9675;51.538;6.728;2023-02-15T00:02:01;13.80;;;4.97;;
19084;SDS011;9675;51.538;6.728;2023-02-15T00:04:28;12.30;;;5.13;;
19084;SDS011;9675;51.538;6.728;2023-02-15T00:07:10;14.10;;;5.37;;
19084;SDS011;9675;51.538;6.728;2023-02-15T00:09:40;12.27;;;5.27;;
19084;SDS011;9675;51.538;6.728;2023-02-15T00:12:08;13.33;;;5.93;;
19084;SDS011;9675;51.538;6.728;2023-02-15T00:14:36;14.23;;;5.30;;
19084;SDS011;9675;51.538;6.728;2023-02-15T00:17:03;14.43;;;6.10;;
19084;SDS011;9675;51.538;6.728;2023-02-15T00:19:30;12.03;;;4.83;;
19084;SDS011;9675;51.538;6.728;2023-02-15T00:21:57;10.70;;;4.63;;
19084;SDS011;9675;51.538;6.728;2023-02-15T00:24:26;13.17;;;5.43;;
19084;SDS011;9675;51.538;6.728;2023-02-15T00:26:53;12.97;;;5.10;;
19084;SDS011;9675;51.538;6.728;2023-02-15T00:29:20;11.00;;;4.73;;
19084;SDS011;9675;51.538;6.728;2023-02-15T00:31:47;16.73;;;6.10;;
19084;SDS011;9675;51.538;6.728;2023-02-15T00:34:15;13.77;;;5.10;;
19084;SDS011;9675;51.538;6.728;2023-02-15T00:36:44;12.47;;;5.03;;
19084;SDS011;9675;51.538;6.728;2023-02-15T00:39:12;11.97;;;5.67;;
19084;SDS011;9675;51.538;6.728;2023-02-15T00:41:42;14.37;;;5.20;;
19084;SDS011;9675;51.538;6.728;2023-02-15T00:44:09;15.03;;;6.00;;
19084;SDS011;9675;51.538;6.728;2023-02-15T00:46:36;13.63;;;5.47;;
19084;SDS011;9675;51.538;6.728;2023-02-15T00:49:04;18.53;;;6.07;;
19084;SDS011;9675;51.538;6.728;2023-02-15T00:51:31;14.57;;;6.10;;
19084;SDS011;9675;51.538;6.728;2023-02-15T00:53:58;22.37;;;7.10;;
19084;SDS011;9675;51.538;6.728;2023-02-15T00:56:25;19.27;;;7.53;;
19084;SDS011;9675;51.538;6.728;2023-02-15T00:58:55;15.30;;;6.60;;
19084;SDS011;9675;51.538;6.728;2023-02-15T01:01:22;14.30;;;5.30;;
19084;SDS011;9675;51.538;6.728;2023-02-15T01:03:50;13.23;;;6.80;;
19084;SDS011;9675;51.538;6.728;2023-02-15T01:06:18;14.57;;;5.87;;
19084;SDS011;9675;51.538;6.728;2023-02-15T01:08:45;13.10;;;5.67;;
19084;SDS011;9675;51.538;6.728;2023-02-15T01:11:15;13.57;;;6.53;;
19084;SDS011;9675;51.538;6.728;2023-02-15T01:13:47;16.13;;;5.93;;
19084;SDS011;9675;51.538;6.728;2023-02-15T01:16:17;14.07;;;5.90;;
19084;SDS011;9675;51.538;6.728;2023-02-15T01:18:44;14.57;;;5.13;;
19084;SDS011;9675;51.538;6.728;2023-02-15T01:21:12;17.80;;;6.13;;
19084;SDS011;9675;51.538;6.728;2023-02-15T01:23:41;16.00;;;6.83;;
19084;SDS011;9675;51.538;6.728;2023-02-15T01:26:09;14.47;;;5.37;;
19084;SDS011;9675;51.538;6.728;2023-02-15T01:28:36;14.37;;;5.73;;
19084;SDS011;9675;51.538;6.728;2023-02-15T01:31:04;15.17;;;6.20;;
19084;SDS011;9675;51.538;6.728;2023-02-15T01:33:34;17.80;;;6.63;;
19084;SDS011;9675;51.538;6.728;2023-02-15T01:36:02;19.57;;;7.43;;
19084;SDS011;9675;51.538;6.728;2023-02-15T01:38:31;15.87;;;6.60;;
19084;SDS011;9675;51.538;6.728;2023-02-15T01:40:58;16.30;;;6.03;;
19084;SDS011;9675;51.538;6.728;2023-02-15T01:43:40;13.10;;;5.70;;
19084;SDS011;9675;51.538;6.728;2023-02-15T01:46:13;13.33;;;5.70;;
19084;SDS011;9675;51.538;6.728;2023-02-15T01:48:45;16.17;;;6.70;;
19084;SDS011;9675;51.538;6.728;2023-02-15T01:51:17;13.40;;;5.57;;
19084;SDS011;9675;51.538;6.728;2023-02-15T01:53:49;20.70;;;6.07;;
19084;SDS011;9675;51.538;6.728;2023-02-15T01:56:25;15.63;;;6.63;;
19084;SDS011;9675;51.538;6.728;2023-02-15T01:58:57;11.13;;;5.27;;
19084;SDS011;9675;51.538;6.728;2023-02-15T02:01:29;12.77;;;5.97;;
19084;SDS011;9675;51.538;6.728;2023-02-15T02:04:00;20.90;;;6.23;;
19084;SDS011;9675;51.538;6.728;2023-02-15T02:06:35;14.00;;;5.97;;
19084;SDS011;9675;51.538;6.728;2023-02-15T02:09:05;14.90;;;6.23;;
19084;SDS011;9675;51.538;6.728;2023-02-15T02:11:32;13.20;;;5.43;;
19084;SDS011;9675;51.538;6.728;2023-02-15T02:14:01;18.33;;;7.07;;
19084;SDS011;9675;51.538;6.728;2023-02-15T02:16:29;17.07;;;7.53;;
19084;SDS011;9675;51.538;6.728;2023-02-15T02:19:25;15.60;;;5.93;;
19084;SDS011;9675;51.538;6.728;2023-02-15T02:25:46;15.33;;;5.90;;
19084;SDS011;9675;51.538;6.728;2023-02-15T02:32:07;10.97;;;4.67;;
19084;SDS011;9675;51.538;6.728;2023-02-15T02:35:09;12.63;;;4.97;;
19084;SDS011;9675;51.538;6.728;2023-02-15T02:37:46;15.87;;;5.87;;
19084;SDS011;9675;51.538;6.728;2023-02-15T02:40:24;15.63;;;6.53;;
19084;SDS011;9675;51.538;6.728;2023-02-15T02:43:08;15.70;;;5.33;;
19084;SDS011;9675;51.538;6.728;2023-02-15T02:45:48;11.07;;;5.27;;
19084;SDS011;9675;51.538;6.728;2023-02-15T02:48:24;13.23;;;6.17;;
19084;SDS011;9675;51.538;6.728;2023-02-15T02:50:57;16.10;;;6.10;;
19084;SDS011;9675;51.538;6.728;2023-02-15T02:53:25;17.50;;;6.27;;
19084;SDS011;9675;51.538;6.728;2023-02-15T02:55:56;13.67;;;5.73;;
19084;SDS011;9675;51.538;6.728;2023-02-15T02:58:29;11.77;;;4.93;;
19084;SDS011;9675;51.538;6.728;2023-02-15T03:01:03;14.17;;;5.67;;
19084;SDS011;9675;51.538;6.728;2023-02-15T03:03:39;12.50;;;6.20;;
19084;SDS011;9675;51.538;6.728;2023-02-15T03:06:12;19.90;;;5.57;;
19084;SDS011;9675;51.538;6.728;2023-02-15T03:08:46;17.47;;;5.60;;
19084;SDS011;9675;51.538;6.728;2023-02-15T03:11:17;13.80;;;5.40;;
19084;SDS011;9675;51.538;6.728;2023-02-15T03:13:44;14.17;;;5.57;;
19084;SDS011;9675;51.538;6.728;2023-02-15T03:16:14;13.33;;;4.93;;
19084;SDS011;9675;51.538;6.728;2023-02-15T03:18:53;15.97;;;5.87;;
19084;SDS011;9675;51.538;6.728;2023-02-15T03:21:30;14.50;;;5.50;;
19084;SDS011;9675;51.538;6.728;2023-02-15T03:24:03;13.23;;;5.20;;
19084;SDS011;9675;51.538;6.728;2023-02-15T03:26:36;10.60;;;5.03;;
19084;SDS011;9675;51.538;6.728;2023-02-15T03:29:06;9.07;;;5.17;;
19084;SDS011;9675;51.538;6.728;2023-02-15T03:31:37;13.33;;;4.93;;
19084;SDS011;9675;51.538;6.728;2023-02-15T03:34:11;9.53;;;4.87;;
19084;SDS011;9675;51.538;6.728;2023-02-15T03:36:43;16.17;;;6.87;;
19084;SDS011;9675;51.538;6.728;2023-02-15T03:39:18;13.17;;;5.80;;
19084;SDS011;9675;51.538;6.728;2023-02-15T03:41:55;18.07;;;7.63;;
19084;SDS011;9675;51.538;6.728;2023-02-15T03:44:27;16.57;;;6.43;;
19084;SDS011;9675;51.538;6.728;2023-02-15T03:46:58;13.43;;;5.83;;
19084;SDS011;9675;51.538;6.728;2023-02-15T03:49:36;17.00;;;5.43;;
19084;SDS011;9675;51.538;6.728;2023-02-15T03:52:09;19.93;;;7.20;;
19084;SDS011;9675;51.538;6.728;2023-02-15T03:54:42;12.03;;;5.77;;
19084;SDS011;9675;51.538;6.728;2023-02-15T03:57:12;14.87;;;5.63;;
19084;SDS011;9675;51.538;6.728;2023-02-15T04:00:03;15.73;;;6.57;;
19084;SDS011;9675;51.538;6.728;2023-02-15T04:02:58;14.73;;;5.47;;
19084;SDS011;9675;51.538;6.728;2023-02-15T04:05:47;11.30;;;5.97;;
19084;SDS011;9675;51.538;6.728;2023-02-15T04:08:16;20.87;;;7.03;;
19084;SDS011;9675;51.538;6.728;2023-02-15T04:10:43;15.97;;;6.53;;
19084;SDS011;9675;51.538;6.728;2023-02-15T04:13:18;15.73;;;6.27;;
19084;SDS011;9675;51.538;6.728;2023-02-15T04:15:45;14.50;;;5.80;;
19084;SDS011;9675;51.538;6.728;2023-02-15T04:18:30;13.27;;;6.13;;
19084;SDS011;9675;51.538;6.728;2023-02-15T04:21:17;12.00;;;6.10;;
19084;SDS011;9675;51.538;6.728;2023-02-15T04:24:04;11.57;;;4.87;;
19084;SDS011;9675;51.538;6.728;2023-02-15T04:26:49;12.47;;;5.07;;
19084;SDS011;9675;51.538;6.728;2023-02-15T04:29:19;23.40;;;6.47;;
19084;SDS011;9675;51.538;6.728;2023-02-15T04:31:48;14.33;;;6.60;;
19084;SDS011;9675;51.538;6.728;2023-02-15T04:34:16;17.93;;;6.63;;
19084;SDS011;9675;51.538;6.728;2023-02-15T04:36:43;15.07;;;7.00;;
19084;SDS011;9675;51.538;6.728;2023-02-15T04:39:13;15.70;;;6.00;;
19084;SDS011;9675;51.538;6.728;2023-02-15T04:41:42;16.20;;;6.93;;
19084;SDS011;9675;51.538;6.728;2023-02-15T04:44:10;15.43;;;6.50;;
19084;SDS011;9675;51.538;6.728;2023-02-15T04:46:37;11.07;;;5.20;;
19084;SDS011;9675;51.538;6.728;2023-02-15T04:49:04;14.27;;;6.17;;
19084;SDS011;9675;51.538;6.728;2023-02-15T04:51:31;18.37;;;6.37;;
19084;SDS011;9675;51.538;6.728;2023-02-15T04:53:58;16.87;;;5.03;;
19084;SDS011;9675;51.538;6.728;2023-02-15T04:56:27;15.00;;;5.97;;
19084;SDS011;9675;51.538;6.728;2023-02-15T04:58:55;16.30;;;6.07;;
19084;SDS011;9675;51.538;6.728;2023-02-15T05:01:22;15.23;;;5.37;;
19084;SDS011;9675;51.538;6.728;2023-02-15T05:03:49;14.97;;;6.07;;
19084;SDS011;9675;51.538;6.728;2023-02-15T05:06:16;14.07;;;6.37;;
19084;SDS011;9675;51.538;6.728;2023-02-15T05:08:43;13.23;;;5.33;;
19084;SDS011;9675;51.538;6.728;2023-02-15T05:11:10;17.17;;;6.47;;
19084;SDS011;9675;51.538;6.728;2023-02-15T05:13:38;18.03;;;5.83;;
19084;SDS011;9675;51.538;6.728;2023-02-15T05:16:05;16.30;;;5.33;;
19084;SDS011;9675;51.538;6.728;2023-02-15T05:18:33;11.43;;;4.73;;
19084;SDS011;9675;51.538;6.728;2023-02-15T05:21:00;12.90;;;5.53;;
19084;SDS011;9675;51.538;6.728;2023-02-15T05:23:27;13.73;;;6.10;;
19084;SDS011;9675;51.538;6.728;2023-02-15T05:25:54;18.23;;;5.73;;
19084;SDS011;9675;51.538;6.728;2023-02-15T05:28:51;14.30;;;5.17;;
19084;SDS011;9675;51.538;6.728;2023-02-15T05:31:18;13.40;;;5.70;;
19084;SDS011;9675;51.538;6.728;2023-02-15T05:33:46;15.77;;;5.83;;
19084;SDS011;9675;51.538;6.728;2023-02-15T05:36:13;22.53;;;6.63;;
19084;SDS011;9675;51.538;6.728;2023-02-15T05:38:40;14.27;;;5.67;;
19084;SDS011;9675;51.538;6.728;2023-02-15T05:41:16;15.63;;;5.33;;
19084;SDS011;9675;51.538;6.728;2023-02-15T05:43:43;18.53;;;6.73;;
19084;SDS011;9675;51.538;6.728;2023-02-15T05:46:12;14.03;;;5.47;;
19084;SDS011;9675;51.538;6.728;2023-02-15T05:48:39;14.93;;;5.70;;
19084;SDS011;9675;51.538;6.728;2023-02-15T05:51:06;15.53;;;6.83;;
19084;SDS011;9675;51.538;6.728;2023-02-15T05:53:36;14.57;;;6.13;;
19084;SDS011;9675;51.538;6.728;2023-02-15T05:56:05;13.53;;;6.73;;
19084;SDS011;9675;51.538;6.728;2023-02-15T05:58:35;13.27;;;5.50;;
19084;SDS011;9675;51.538;6.728;2023-02-15T06:01:08;18.23;;;6.40;;
19084;SDS011;9675;51.538;6.728;2023-02-15T06:03:39;14.53;;;5.23;;
19084;SDS011;9675;51.538;6.728;2023-02-15T06:06:07;13.97;;;6.00;;
19084;SDS011;9675;51.538;6.728;2023-02-15T06:08:34;23.63;;;7.20;;
19084;SDS011;9675;51.538;6.728;2023-02-15T06:11:03;17.87;;;6.27;;
19084;SDS011;9675;51.538;6.728;2023-02-15T06:13:31;16.37;;;7.23;;
19084;SDS011;9675;51.538;6.728;2023-02-15T06:15:59;14.33;;;6.27;;
19084;SDS011;9675;51.538;6.728;2023-02-15T06:18:28;13.70;;;5.90;;
19084;SDS011;9675;51.538;6.728;2023-02-15T06:20:55;17.37;;;7.37;;
19084;SDS011;9675;51.538;6.728;2023-02-15T06:23:22;17.63;;;7.23;;
19084;SDS011;9675;51.538;6.728;2023-02-15T06:25:49;17.10;;;6.23;;
19084;SDS011;9675;51.538;6.728;2023-02-15T06:28:16;13.00;;;5.50;;
19084;SDS011;9675;51.538;6.728;2023-02-15T06:30:43;15.27;;;6.53;;
19084;SDS011;9675;51.538;6.728;2023-02-15T06:33:10;19.33;;;6.57;;
19084;SDS011;9675;51.538;6.728;2023-02-15T06:35:38;16.27;;;5.70;;
19084;SDS011;9675;51.538;6.728;2023-02-15T06:38:06;17.90;;;5.77;;
19084;SDS011;9675;51.538;6.728;2023-02-15T06:40:33;16.27;;;6.93;;
19084;SDS011;9675;51.538;6.728;2023-02-15T06:43:00;16.60;;;5.57;;
19084;SDS011;9675;51.538;6.728;2023-02-15T06:45:27;15.27;;;6.37;;
19084;SDS011;9675;51.538;6.728;2023-02-15T06:47:54;15.20;;;5.87;;
19084;SDS011;9675;51.538;6.728;2023-02-15T06:50:21;18.17;;;6.37;;
19084;SDS011;9675;51.538;6.728;2023-02-15T06:52:52;14.80;;;6.30;;
19084;SDS011;9675;51.538;6.728;2023-02-15T06:55:22;19.33;;;6.27;;
19084;SDS011;9675;51.538;6.728;2023-02-15T06:57:49;14.63;;;7.03;;
19084;SDS011;9675;51.538;6.728;2023-02-15T07:00:17;21.93;;;8.03;;
19084;SDS011;9675;51.538;6.728;2023-02-15T07:02:45;17.37;;;7.40;;
19084;SDS011;9675;51.538;6.728;2023-02-15T07:05:12;26.07;;;8.93;;
19084;SDS011;9675;51.538;6.728;2023-02-15T07:07:39;23.10;;;9.43;;
19084;SDS011;9675;51.538;6.728;2023-02-15T07:10:08;23.63;;;9.70;;
19084;SDS011;9675;51.538;6.728;2023-02-15T07:12:35;28.73;;;8.83;;
19084;SDS011;9675;51.538;6.728;2023-02-15T07:15:07;26.27;;;9.23;;
19084;SDS011;9675;51.538;6.728;2023-02-15T07:17:35;19.90;;;7.87;;
19084;SDS011;9675;51.538;6.728;2023-02-15T07:20:03;16.97;;;7.83;;
19084;SDS011;9675;51.538;6.728;2023-02-15T07:22:34;21.17;;;9.17;;
19084;SDS011;9675;51.538;6.728;2023-02-15T07:25:02;22.07;;;8.33;;
19084;SDS011;9675;51.538;6.728;2023-02-15T07:27:31;18.63;;;9.23;;
19084;SDS011;9675;51.538;6.728;2023-02-15T07:29:58;17.00;;;7.30;;
19084;SDS011;9675;51.538;6.728;2023-02-15T07:32:27;18.70;;;7.53;;
19084;SDS011;9675;51.538;6.728;2023-02-15T07:34:55;29.87;;;8.77;;
19084;SDS011;9675;51.538;6.728;2023-02-15T07:37:23;20.53;;;8.63;;
19084;SDS011;9675;51.538;6.728;2023-02-15T07:39:51;28.90;;;10.77;;
19084;SDS011;9675;51.538;6.728;2023-02-15T07:42:18;21.40;;;8.43;;
19084;SDS011;9675;51.538;6.728;2023-02-15T07:44:48;24.67;;;8.73;;
19084;SDS011;9675;51.538;6.728;2023-02-15T07:47:15;23.73;;;7.87;;
19084;SDS011;9675;51.538;6.728;2023-02-15T07:49:42;28.27;;;9.63;;
19084;SDS011;9675;51.538;6.728;2023-02-15T07:52:09;24.23;;;7.97;;
19084;SDS011;9675;51.538;6.728;2023-02-15T07:54:36;24.73;;;8.63;;
19084;SDS011;9675;51.538;6.728;2023-02-15T07:57:03;22.40;;;8.80;;
19084;SDS011;9675;51.538;6.728;2023-02-15T07:59:30;25.90;;;8.93;;
19084;SDS011;9675;51.538;6.728;2023-02-15T08:01:59;24.03;;;8.23;;
19084;SDS011;9675;51.538;6.728;2023-02-15T08:04:26;19.97;;;6.80;;
19084;SDS011;9675;51.538;6.728;2023-02-15T08:06:53;24.07;;;9.70;;
19084;SDS011;9675;51.538;6.728;2023-02-15T08:09:20;24.03;;;8.43;;
19084;SDS011;9675;51.538;6.728;2023-02-15T08:11:48;21.47;;;7.53;;
19084;SDS011;9675;51.538;6.728;2023-02-15T08:14:15;20.33;;;8.70;;
19084;SDS011;9675;51.538;6.728;2023-02-15T08:16:45;19.10;;;7.87;;
19084;SDS011;9675;51.538;6.728;2023-02-15T08:19:17;25.97;;;8.10;;
19084;SDS011;9675;51.538;6.728;2023-02-15T08:21:47;21.03;;;7.47;;
19084;SDS011;9675;51.538;6.728;2023-02-15T08:24:16;19.23;;;7.03;;
19084;SDS011;9675;51.538;6.728;2023-02-15T08:26:45;20.97;;;8.73;;
19084;SDS011;9675;51.538;6.728;2023-02-15T08:29:14;26.13;;;10.27;;
19084;SDS011;9675;51.538;6.728;2023-02-15T08:31:43;16.00;;;7.37;;
19084;SDS011;9675;51.538;6.728;2023-02-15T08:34:13;27.30;;;10.73;;
19084;SDS011;9675;51.538;6.728;2023-02-15T08:36:44;23.37;;;9.33;;
19084;SDS011;9675;51.538;6.728;2023-02-15T08:39:12;23.30;;;8.57;;
19084;SDS011;9675;51.538;6.728;2023-02-15T08:41:42;29.40;;;10.20;;
19084;SDS011;9675;51.538;6.728;2023-02-15T08:44:11;22.87;;;9.17;;
19084;SDS011;9675;51.538;6.728;2023-02-15T08:46:41;27.40;;;9.70;;
19084;SDS011;9675;51.538;6.728;2023-02-15T08:49:11;21.37;;;8.07;;
19084;SDS011;9675;51.538;6.728;2023-02-15T08:51:43;18.57;;;8.20;;
19084;SDS011;9675;51.538;6.728;2023-02-15T08:54:12;27.53;;;9.17;;
19084;SDS011;9675;51.538;6.728;2023-02-15T08:56:41;28.20;;;8.93;;
19084;SDS011;9675;51.538;6.728;2023-02-15T08:59:12;27.20;;;10.10;;
19084;SDS011;9675;51.538;6.728;2023-02-15T09:01:41;22.27;;;8.50;;
19084;SDS011;9675;51.538;6.728;2023-02-15T09:04:08;19.73;;;9.60;;
19084;SDS011;9675;51.538;6.728;2023-02-15T09:06:35;22.23;;;8.30;;
19084;SDS011;9675;51.538;6.728;2023-02-15T09:09:05;22.53;;;8.17;;
19084;SDS011;9675;51.538;6.728;2023-02-15T09:11:33;22.67;;;6.60;;
19084;SDS011;9675;51.538;6.728;2023-02-15T09:14:03;23.27;;;9.27;;
19084;SDS011;9675;51.538;6.728;2023-02-15T09:16:33;22.80;;;8.73;;
19084;SDS011;9675;51.538;6.728;2023-02-15T09:19:03;23.23;;;8.83;;
19084;SDS011;9675;51.538;6.728;2023-02-15T09:21:32;18.43;;;8.17;;
19084;SDS011;9675;51.538;6.728;2023-02-15T09:24:01;21.00;;;8.13;;
19084;SDS011;9675;51.538;6.728;2023-02-15T09:26:34;18.23;;;6.90;;
19084;SDS011;9675;51.538;6.728;2023-02-15T09:29:05;21.00;;;8.33;;
19084;SDS011;9675;51.538;6.728;2023-02-15T09:31:33;24.33;;;8.37;;
19084;SDS011;9675;51.538;6.728;2023-02-15T09:34:06;16.93;;;6.37;;
19084;SDS011;9675;51.538;6.728;2023-02-15T09:36:33;23.37;;;9.20;;
19084;SDS011;9675;51.538;6.728;2023-02-15T09:39:03;23.03;;;9.40;;
19084;SDS011;9675;51.538;6.728;2023-02-15T09:45:01;20.83;;;8.50;;
19084;SDS011;9675;51.538;6.728;2023-02-15T09:47:57;16.93;;;6.90;;
19084;SDS011;9675;51.538;6.728;2023-02-15T09:51:17;35.07;;;10.33;;
19084;SDS011;9675;51.538;6.728;2023-02-15T09:54:38;17.53;;;7.33;;
19084;SDS011;9675;51.538;6.728;2023-02-15T09:57:24;17.43;;;6.97;;
19084;SDS011;9675;51.538;6.728;2023-02-15T10:00:11;19.10;;;8.67;;
19084;SDS011;9675;51.538;6.728;2023-02-15T10:02:59;19.30;;;8.40;;
19084;SDS011;9675;51.538;6.728;2023-02-15T10:05:57;19.33;;;9.07;;
19084;SDS011;9675;51.538;6.728;2023-02-15T10:12:07;19.80;;;8.37;;
19084;SDS011;9675;51.538;6.728;2023-02-15T10:15:03;23.07;;;9.00;;
19084;SDS011;9675;51.538;6.728;2023-02-15T10:18:11;20.10;;;8.03;;
19084;SDS011;9675;51.538;6.728;2023-02-15T10:21:04;19.07;;;8.07;;
19084;SDS011;9675;51.538;6.728;2023-02-15T10:23:47;21.73;;;7.83;;
19084;SDS011;9675;51.538;6.728;2023-02-15T10:26:46;20.10;;;8.37;;
19084;SDS011;9675;51.538;6.728;2023-02-15T10:29:17;19.37;;;7.90;;
19084;SDS011;9675;51.538;6.728;2023-02-15T10:31:58;20.93;;;7.87;;
19084;SDS011;9675;51.538;6.728;2023-02-15T10:34:39;20.13;;;7.83;;
19084;SDS011;9675;51.538;6.728;2023-02-15T10:37:30;25.70;;;9.50;;
19084;SDS011;9675;51.538;6.728;2023-02-15T10:40:18;18.20;;;7.17;;
19084;SDS011;9675;51.538;6.728;2023-02-15T10:43:10;19.97;;;8.40;;
19084;SDS011;9675;51.538;6.728;2023-02-15T10:45:57;20.43;;;8.60;;
19084;SDS011;9675;51.538;6.728;2023-02-15T10:48:46;22.43;;;9.27;;
19084;SDS011;9675;51.538;6.728;2023-02-15T10:51:34;18.03;;;7.23;;
19084;SDS011;9675;51.538;6.728;2023-02-15T10:54:19;22.23;;;8.17;;
19084;SDS011;9675;51.538;6.728;2023-02-15T10:57:03;21.50;;;7.97;;
19084;SDS011;9675;51.538;6.728;2023-02-15T11:02:45;18.27;;;7.63;;
19084;SDS011;9675;51.538;6.728;2023-02-15T11:05:35;24.67;;;8.37;;
19084;SDS011;9675;51.538;6.728;2023-02-15T11:08:18;21.10;;;7.90;;
19084;SDS011;9675;51.538;6.728;2023-02-15T11:10:49;21.27;;;8.63;;
19084;SDS011;9675;51.538;6.728;2023-02-15T11:13:26;16.23;;;6.03;;
19084;SDS011;9675;51.538;6.728;2023-02-15T11:16:00;25.30;;;9.30;;
19084;SDS011;9675;51.538;6.728;2023-02-15T11:18:37;23.73;;;7.80;;
19084;SDS011;9675;51.538;6.728;2023-02-15T11:21:13;18.83;;;8.00;;
19084;SDS011;9675;51.538;6.728;2023-02-15T11:23:48;22.17;;;8.33;;
19084;SDS011;9675;51.538;6.728;2023-02-15T11:26:19;17.70;;;7.80;;
19084;SDS011;9675;51.538;6.728;2023-02-15T11:28:56;18.60;;;8.30;;
19084;SDS011;9675;51.538;6.728;2023-02-15T11:31:30;18.03;;;7.87;;
19084;SDS011;9675;51.538;6.728;2023-02-15T11:34:13;18.70;;;8.07;;
19084;SDS011;9675;51.538;6.728;2023-02-15T11:36:48;23.40;;;8.47;;
19084;SDS011;9675;51.538;6.728;2023-02-15T11:39:20;27.20;;;10.57;;
19084;SDS011;9675;51.538;6.728;2023-02-15T11:41:54;20.23;;;7.73;;
19084;SDS011;9675;51.538;6.728;2023-02-15T11:44:30;24.27;;;8.20;;
19084;SDS011;9675;51.538;6.728;2023-02-15T11:47:07;23.93;;;9.20;;
19084;SDS011;9675;51.538;6.728;2023-02-15T11:49:39;22.33;;;8.07;;
19084;SDS011;9675;51.538;6.728;2023-02-15T11:52:11;28.00;;;11.77;;
19084;SDS011;9675;51.538;6.728;2023-02-15T11:54:44;20.87;;;8.73;;
19084;SDS011;9675;51.538;6.728;2023-02-15T11:57:17;25.37;;;10.13;;
19084;SDS011;9675;51.538;6.728;2023-02-15T11:59:50;26.30;;;10.77;;
19084;SDS011;9675;51.538;6.728;2023-02-15T12:02:30;24.80;;;10.67;;
19084;SDS011;9675;51.538;6.728;2023-02-15T12:05:05;23.33;;;7.97;;
19084;SDS011;9675;51.538;6.728;2023-02-15T12:07:40;18.43;;;8.07;;
19084;SDS011;9675;51.538;6.728;2023-02-15T12:10:16;23.17;;;8.30;;
19084;SDS011;9675;51.538;6.728;2023-02-15T12:12:53;21.27;;;9.47;;
19084;SDS011;9675;51.538;6.728;2023-02-15T12:15:37;25.33;;;9.13;;
19084;SDS011;9675;51.538;6.728;2023-02-15T12:18:16;23.13;;;8.60;;
19084;SDS011;9675;51.538;6.728;2023-02-15T12:21:02;29.67;;;9.10;;
19084;SDS011;9675;51.538;6.728;2023-02-15T12:23:33;24.20;;;8.47;;
19084;SDS011;9675;51.538;6.728;2023-02-15T12:26:09;25.97;;;7.93;;
19084;SDS011;9675;51.538;6.728;2023-02-15T12:28:38;21.33;;;8.67;;
19084;SDS011;9675;51.538;6.728;2023-02-15T12:31:19;19.30;;;7.47;;
19084;SDS011;9675;51.538;6.728;2023-02-15T12:33:49;16.83;;;7.13;;
19084;SDS011;9675;51.538;6.728;2023-02-15T12:36:21;22.27;;;8.53;;
19084;SDS011;9675;51.538;6.728;2023-02-15T12:39:03;28.47;;;9.37;;
19084;SDS011;9675;51.538;6.728;2023-02-15T12:41:44;28.80;;;9.87;;
19084;SDS011;9675;51.538;6.728;2023-02-15T12:44:23;19.37;;;7.30;;
19084;SDS011;9675;51.538;6.728;2023-02-15T12:46:58;20.30;;;8.20;;
19084;SDS011;9675;51.538;6.728;2023-02-15T12:49:28;21.70;;;7.67;;
19084;SDS011;9675;51.538;6.728;2023-02-15T12:51:59;20.53;;;7.43;;
19084;SDS011;9675;51.538;6.728;2023-02-15T12:54:32;22.80;;;8.23;;
19084;SDS011;9675;51.538;6.728;2023-02-15T12:57:14;21.47;;;7.87;;
19084;SDS011;9675;51.538;6.728;2023-02-15T12:59:50;17.00;;;6.97;;
19084;SDS011;9675;51.538;6.728;2023-02-15T13:02:24;15.10;;;6.53;;
19084;SDS011;9675;51.538;6.728;2023-02-15T13:04:57;18.43;;;8.43;;
19084;SDS011;9675;51.538;6.728;2023-02-15T13:07:46;20.47;;;8.10;;
19084;SDS011;9675;51.538;6.728;2023-02-15T13:10:23;26.03;;;7.37;;
19084;SDS011;9675;51.538;6.728;2023-02-15T13:12:56;19.20;;;7.27;;
19084;SDS011;9675;51.538;6.728;2023-02-15T13:15:28;16.17;;;6.73;;
19084;SDS011;9675;51.538;6.728;2023-02-15T13:18:02;27.63;;;8.40;;
19084;SDS011;9675;51.538;6.728;2023-02-15T13:20:37;17.87;;;7.33;;
19084;SDS011;9675;51.538;6.728;2023-02-15T13:23:09;21.00;;;7.07;;
19084;SDS011;9675;51.538;6.728;2023-02-15T13:25:53;19.33;;;6.87;;
19084;SDS011;9675;51.538;6.728;2023-02-15T13:28:24;13.80;;;6.63;;
19084;SDS011;9675;51.538;6.728;2023-02-15T13:31:07;20.97;;;6.87;;
19084;SDS011;9675;51.538;6.728;2023-02-15T13:33:42;24.87;;;8.50;;
19084;SDS011;9675;51.538;6.728;2023-02-15T13:36:16;17.43;;;6.90;;
19084;SDS011;9675;51.538;6.728;2023-02-15T13:39:00;18.17;;;7.23;;
19084;SDS011;9675;51.538;6.728;2023-02-15T13:41:46;18.10;;;7.10;;
19084;SDS011;9675;51.538;6.728;2023-02-15T13:44:25;16.87;;;6.90;;
19084;SDS011;9675;51.538;6.728;2023-02-15T13:47:17;24.00;;;7.53;;
19084;SDS011;9675;51.538;6.728;2023-02-15T13:49:56;17.07;;;6.90;;
19084;SDS011;9675;51.538;6.728;2023-02-15T13:52:46;24.80;;;6.83;;
19084;SDS011;9675;51.538;6.728;2023-02-15T13:55:28;15.93;;;6.77;;
19084;SDS011;9675;51.538;6.728;2023-02-15T13:58:14;16.57;;;6.60;;
19084;SDS011;9675;51.538;6.728;2023-02-15T14:01:19;22.20;;;7.47;;
19084;SDS011;9675;51.538;6.728;2023-02-15T14:10:16;20.00;;;6.77;;
19084;SDS011;9675;51.538;6.728;2023-02-15T14:13:02;19.93;;;7.10;;
19084;SDS011;9675;51.538;6.728;2023-02-15T14:16:09;19.37;;;8.17;;
19084;SDS011;9675;51.538;6.728;2023-02-15T14:18:47;21.37;;;7.60;;
19084;SDS011;9675;51.538;6.728;2023-02-15T14:21:27;22.57;;;8.73;;
19084;SDS011;9675;51.538;6.728;2023-02-15T14:24:07;16.47;;;6.37;;
19084;SDS011;9675;51.538;6.728;2023-02-15T14:26:52;19.20;;;6.43;;
19084;SDS011;9675;51.538;6.728;2023-02-15T14:29:41;20.00;;;6.97;;
19084;SDS011;9675;51.538;6.728;2023-02-15T14:32:17;24.40;;;6.93;;
19084;SDS011;9675;51.538;6.728;2023-02-15T14:34:55;16.53;;;5.70;;
19084;SDS011;9675;51.538;6.728;2023-02-15T14:37:28;22.27;;;6.77;;
19084;SDS011;9675;51.538;6.728;2023-02-15T14:40:11;16.50;;;6.03;;
19084;SDS011;9675;51.538;6.728;2023-02-15T14:43:10;18.93;;;6.83;;
19084;SDS011;9675;51.538;6.728;2023-02-15T14:45:52;15.13;;;5.90;;
19084;SDS011;9675;51.538;6.728;2023-02-15T14:48:23;22.53;;;6.90;;
19084;SDS011;9675;51.538;6.728;2023-02-15T14:50:59;16.30;;;6.03;;
19084;SDS011;9675;51.538;6.728;2023-02-15T14:53:33;25.93;;;8.60;;
19084;SDS011;9675;51.538;6.728;2023-02-15T14:56:12;16.70;;;7.63;;
19084;SDS011;9675;51.538;6.728;2023-02-15T15:01:51;17.23;;;6.33;;
19084;SDS011;9675;51.538;6.728;2023-02-15T15:04:25;23.30;;;7.90;;
19084;SDS011;9675;51.538;6.728;2023-02-15T15:06:59;15.23;;;6.40;;
19084;SDS011;9675;51.538;6.728;2023-02-15T15:09:35;17.23;;;6.43;;
19084;SDS011;9675;51.538;6.728;2023-02-15T15:12:18;17.03;;;6.50;;
19084;SDS011;9675;51.538;6.728;2023-02-15T15:15:09;18.27;;;5.97;;
19084;SDS011;9675;51.538;6.728;2023-02-15T15:17:51;17.83;;;5.93;;
19084;SDS011;9675;51.538;6.728;2023-02-15T15:20:37;13.20;;;5.50;;
19084;SDS011;9675;51.538;6.728;2023-02-15T15:26:26;15.37;;;5.77;;
19084;SDS011;9675;51.538;6.728;2023-02-15T15:29:01;15.33;;;6.13;;
19084;SDS011;9675;51.538;6.728;2023-02-15T15:31:37;14.53;;;5.40;;
19084;SDS011;9675;51.538;6.728;2023-02-15T15:37:49;13.07;;;5.87;;
19084;SDS011;9675;51.538;6.728;2023-02-15T15:40:42;15.77;;;5.90;;
19084;SDS011;9675;51.538;6.728;2023-02-15T15:44:00;16.97;;;6.27;;
19084;SDS011;9675;51.538;6.728;2023-02-15T15:47:15;15.27;;;6.30;;
19084;SDS011;9675;51.538;6.728;2023-02-15T15:50:00;13.30;;;5.30;;
19084;SDS011;9675;51.538;6.728;2023-02-15T15:52:38;12.50;;;5.73;;
19084;SDS011;9675;51.538;6.728;2023-02-15T15:55:14;13.90;;;6.03;;
19084;SDS011;9675;51.538;6.728;2023-02-15T15:57:45;18.70;;;6.17;;
19084;SDS011;9675;51.538;6.728;2023-02-15T16:00:29;20.03;;;6.23;;
19084;SDS011;9675;51.538;6.728;2023-02-15T16:03:05;14.87;;;6.00;;
19084;SDS011;9675;51.538;6.728;2023-02-15T16:08:51;13.47;;;6.27;;